Time;durP1;ratioP1;P1;durP2;ratioP2;P2;SDS_P1;SDS_P2;PMS_P1;PMS_P2;Temp;Humidity;BMP_temperature;BMP_pressure;BME280_temperature;BME280_humidity;BME280_pressure;Samples;Min_cycle;Max_cycle;Signal;HPM_P1;HPM_P2
2021/06/14 00:00:33;;;;;;;14.23;4.55;;;;;;;17.39;57.04;100689.00;5015948;28;20065;-61
2021/06/14 00:03:02;;;;;;;11.02;5.30;;;;;;;17.37;57.03;100686.38;5014152;28;20050;-61
2021/06/14 00:05:33;;;;;;;8.40;5.20;;;;;;;17.35;56.96;100681.16;5014603;28;20065;-60
2021/06/14 00:08:03;;;;;;;10.00;5.88;;;;;;;17.35;57.08;100682.91;5015568;28;20038;-61
2021/06/14 00:10:30;;;;;;;9.63;5.30;;;;;;;17.34;57.15;100675.91;5015353;28;20109;-61
2021/06/14 00:13:00;;;;;;;8.55;4.97;;;;;;;17.33;57.18;100677.66;5015800;28;20128;-61
2021/06/14 00:15:29;;;;;;;13.30;5.25;;;;;;;17.32;57.02;100675.91;4997984;28;20049;-61
2021/06/14 00:18:00;;;;;;;11.68;5.78;;;;;;;17.31;57.25;100671.56;5015486;28;20461;-62
2021/06/14 00:20:26;;;;;;;10.32;5.53;;;;;;;17.30;57.38;100661.94;5015804;28;20501;-62
2021/06/14 00:23:01;;;;;;;10.77;5.68;;;;;;;17.29;57.02;100673.31;5015555;28;20030;-62
2021/06/14 00:25:31;;;;;;;9.18;5.45;;;;;;;17.28;57.23;100660.22;5015404;28;20117;-62
2021/06/14 00:28:01;;;;;;;13.57;6.07;;;;;;;17.27;57.28;100661.94;5015448;28;20033;-62
2021/06/14 00:30:36;;;;;;;11.50;5.68;;;;;;;17.26;57.21;100657.59;5014649;28;20125;-62
2021/06/14 00:33:02;;;;;;;10.48;5.60;;;;;;;17.25;57.17;100649.75;5015712;28;20056;-62
2021/06/14 00:35:30;;;;;;;10.63;5.43;;;;;;;17.24;57.13;100656.72;5015296;28;20474;-62
2021/06/14 00:37:58;;;;;;;9.45;5.07;;;;;;;17.24;57.30;100654.09;5013978;28;20044;-62
2021/06/14 00:40:26;;;;;;;8.70;5.60;;;;;;;17.24;57.40;100651.47;5015187;28;20096;-62
2021/06/14 00:42:53;;;;;;;9.18;5.63;;;;;;;17.25;57.38;100644.50;5015155;28;20034;-62
2021/06/14 00:45:31;;;;;;;10.98;5.63;;;;;;;17.23;57.40;100641.88;5013590;28;20140;-62
2021/06/14 00:48:00;;;;;;;9.93;6.00;;;;;;;17.22;57.51;100637.50;5014206;28;20061;-62
2021/06/14 00:50:54;;;;;;;10.73;6.10;;;;;;;17.19;57.31;100634.91;5015149;28;20045;-63
2021/06/14 00:53:32;;;;;;;9.85;5.95;;;;;;;17.19;57.57;100632.28;5014767;28;20049;-62
2021/06/14 00:56:06;;;;;;;14.73;7.25;;;;;;;17.17;57.45;100636.66;5014433;28;20046;-63
2021/06/14 00:58:37;;;;;;;12.73;6.35;;;;;;;17.16;57.65;100630.53;5013818;28;20534;-62
2021/06/14 01:01:05;;;;;;;10.27;5.85;;;;;;;17.15;57.72;100625.31;5014765;28;20046;-61
2021/06/14 01:03:31;;;;;;;11.38;5.53;;;;;;;17.14;57.76;100628.81;5013536;28;20057;-61
2021/06/14 01:06:02;;;;;;;12.38;6.15;;;;;;;17.13;57.56;100624.44;5014597;28;20066;-61
2021/06/14 01:08:32;;;;;;;12.30;5.88;;;;;;;17.10;57.63;100620.09;5014845;28;20092;-61
2021/06/14 01:11:01;;;;;;;11.60;5.53;;;;;;;17.09;57.72;100620.97;5013367;28;20128;-61
2021/06/14 01:13:29;;;;;;;10.93;6.75;;;;;;;17.09;57.79;100614.84;5014455;28;20029;-60
2021/06/14 01:16:12;;;;;;;10.07;6.22;;;;;;;17.07;57.57;100613.97;5013132;28;20053;-61
2021/06/14 01:18:52;;;;;;;12.20;6.32;;;;;;;17.04;57.55;100615.75;5014777;28;20375;-61
2021/06/14 01:21:31;;;;;;;13.48;6.60;;;;;;;17.03;57.64;100611.38;5014623;28;20041;-61
2021/06/14 01:24:23;;;;;;;14.48;6.32;;;;;;;17.02;57.49;100608.75;5014443;28;20508;-61
2021/06/14 01:27:07;;;;;;;10.48;5.85;;;;;;;17.01;57.55;100607.00;5014480;28;20034;-62
2021/06/14 01:29:33;;;;;;;14.32;6.57;;;;;;;17.00;57.70;100600.00;5014587;28;20049;-62
2021/06/14 01:32:01;;;;;;;11.57;6.13;;;;;;;16.97;57.69;100602.66;5014455;28;20042;-62
2021/06/14 01:34:29;;;;;;;11.10;6.35;;;;;;;16.97;57.75;100589.56;5013805;28;20057;-62
2021/06/14 01:37:01;;;;;;;9.35;6.78;;;;;;;16.96;57.63;100591.28;5012615;28;20041;-62
2021/06/14 01:39:33;;;;;;;12.43;6.30;;;;;;;16.94;57.68;100587.78;5014224;28;20030;-62
2021/06/14 01:41:59;;;;;;;8.40;5.95;;;;;;;16.94;57.69;100593.00;5012928;28;20034;-62
2021/06/14 01:44:27;;;;;;;11.82;6.63;;;;;;;16.93;57.86;100591.25;5012864;28;20056;-62
2021/06/14 01:46:58;;;;;;;13.88;7.00;;;;;;;16.90;57.84;100591.25;4996214;28;20060;-62
2021/06/14 01:49:27;;;;;;;12.48;6.07;;;;;;;16.89;57.87;100589.53;4996465;28;20048;-62
2021/06/14 01:51:55;;;;;;;11.70;6.82;;;;;;;16.90;57.81;100591.25;5013275;28;20041;-62
2021/06/14 01:54:21;;;;;;;11.35;5.20;;;;;;;16.88;57.90;100591.28;5013242;28;20034;-62
2021/06/14 01:56:49;;;;;;;16.17;5.95;;;;;;;16.87;57.55;100588.66;5014197;28;20034;-62
2021/06/14 01:59:38;;;;;;;8.23;6.10;;;;;;;16.84;57.68;100583.44;5013624;28;20072;-62
2021/06/14 02:02:06;;;;;;;10.73;5.75;;;;;;;16.84;58.02;100576.44;5013854;28;20050;-62
2021/06/14 02:04:37;;;;;;;11.65;6.45;;;;;;;16.84;57.85;100584.28;5013492;28;20033;-62
2021/06/14 02:07:03;;;;;;;11.30;5.93;;;;;;;16.84;58.00;100580.81;5012957;28;20473;-62
2021/06/14 02:09:35;;;;;;;10.25;6.35;;;;;;;16.83;57.94;100571.22;5012719;28;20034;-62
2021/06/14 02:12:04;;;;;;;15.88;6.78;;;;;;;16.83;58.01;100579.06;5012434;28;20042;-62
2021/06/14 02:14:35;;;;;;;12.13;6.47;;;;;;;16.82;58.05;100572.94;5013449;28;20061;-62
2021/06/14 02:17:06;;;;;;;11.77;6.20;;;;;;;16.81;57.78;100567.72;5012628;28;20489;-62
2021/06/14 02:19:34;;;;;;;10.07;6.05;;;;;;;16.80;58.14;100568.59;5013778;28;20100;-62
2021/06/14 02:22:03;;;;;;;14.65;6.28;;;;;;;16.79;58.02;100564.25;5013647;28;20033;-62
2021/06/14 02:24:31;;;;;;;11.68;6.38;;;;;;;16.79;58.02;100566.84;5013701;28;20089;-62
2021/06/14 02:26:59;;;;;;;9.15;6.25;;;;;;;16.77;57.95;100572.09;5013549;28;20096;-62
2021/06/14 02:29:28;;;;;;;12.10;5.43;;;;;;;16.76;57.76;100562.50;5012206;28;20038;-60
2021/06/14 02:31:56;;;;;;;11.57;5.88;;;;;;;16.75;58.18;100561.63;5012276;28;20489;-61
2021/06/14 02:34:28;;;;;;;15.75;6.38;;;;;;;16.73;57.98;100555.53;5012310;28;20160;-60
2021/06/14 02:36:55;;;;;;;11.35;6.30;;;;;;;16.71;58.01;100557.28;5013639;28;20061;-60
2021/06/14 02:39:29;;;;;;;11.05;6.45;;;;;;;16.70;58.41;100552.91;5013563;28;20041;-61
2021/06/14 02:41:58;;;;;;;;;;;;;;;16.66;57.80;100548.56;5013045;28;20030;-61
2021/06/14 02:44:28;;;;;;;11.25;5.90;;;;;;;16.67;57.96;100547.69;5013312;28;20390;-61
2021/06/14 02:47:00;;;;;;;12.52;6.28;;;;;;;16.67;58.00;100547.69;5013271;28;20040;-61
2021/06/14 02:49:27;;;;;;;7.00;5.50;;;;;;;16.68;58.16;100552.03;5012380;28;20046;-61
2021/06/14 02:52:01;;;;;;;9.02;5.38;;;;;;;16.68;58.05;100557.28;5013447;28;20034;-61
2021/06/14 02:54:34;;;;;;;10.45;6.60;;;;;;;16.67;57.83;100557.25;5012914;28;20046;-61
2021/06/14 02:57:09;;;;;;;10.25;5.53;;;;;;;16.65;57.98;100549.44;5013472;28;20030;-60
2021/06/14 02:59:47;;;;;;;13.85;5.93;;;;;;;16.64;57.98;100542.44;4996052;28;20050;-60
2021/06/14 03:02:13;;;;;;;7.28;5.28;;;;;;;16.63;58.07;100538.09;5013235;28;20056;-61
2021/06/14 03:04:44;;;;;;;11.07;5.35;;;;;;;16.63;58.01;100527.63;5012748;28;20034;-61
2021/06/14 03:07:12;;;;;;;11.80;6.38;;;;;;;16.61;58.01;100531.13;5011874;28;20042;-61
2021/06/14 03:09:42;;;;;;;12.00;6.13;;;;;;;16.59;58.07;100529.38;5013626;28;20037;-61
2021/06/14 03:12:13;;;;;;;11.23;6.10;;;;;;;16.57;58.29;100530.25;5013256;28;20038;-61
2021/06/14 03:14:46;;;;;;;10.93;5.32;;;;;;;16.56;58.18;100529.38;5013406;28;20034;-61
2021/06/14 03:17:15;;;;;;;10.10;5.63;;;;;;;16.56;58.10;100524.13;5012923;28;20041;-61
2021/06/14 03:19:47;;;;;;;9.20;5.18;;;;;;;16.55;57.85;100521.53;4999770;28;20045;-61
2021/06/14 03:22:21;;;;;;;8.05;5.57;;;;;;;16.55;58.07;100519.78;5015968;28;20038;-61
2021/06/14 03:24:53;;;;;;;11.88;5.57;;;;;;;16.55;58.09;100526.78;5015352;28;20128;-61
2021/06/14 03:27:25;;;;;;;8.40;5.75;;;;;;;16.54;57.98;100514.56;5014973;28;20042;-61
2021/06/14 03:29:53;;;;;;;9.43;4.93;;;;;;;16.54;58.03;100517.19;5016565;28;20029;-61
2021/06/14 03:32:21;;;;;;;8.10;5.30;;;;;;;16.53;58.08;100510.19;5015496;28;20038;-61
2021/06/14 03:34:48;;;;;;;8.50;5.05;;;;;;;16.52;58.15;100511.94;5016488;28;20504;-61
2021/06/14 03:37:14;;;;;;;11.20;6.20;;;;;;;16.54;58.16;100514.56;5016140;28;20448;-61
2021/06/14 03:39:47;;;;;;;8.07;4.93;;;;;;;16.53;58.27;100510.19;5015137;28;20030;-61
2021/06/14 03:42:24;;;;;;;12.25;5.97;;;;;;;16.54;58.06;100517.19;5014709;28;20436;-61
2021/06/14 03:44:52;;;;;;;7.68;5.65;;;;;;;16.53;58.22;100507.59;5016776;28;20088;-62
2021/06/14 03:47:20;;;;;;;7.78;5.65;;;;;;;16.52;58.26;100511.94;5015308;28;20130;-61
2021/06/14 03:49:49;;;;;;;11.98;5.82;;;;;;;16.52;57.93;100511.94;4998700;28;20045;-61
2021/06/14 03:52:14;;;;;;;13.43;6.00;;;;;;;16.52;58.05;100513.69;5014697;28;20041;-61
2021/06/14 03:54:43;;;;;;;10.07;5.80;;;;;;;16.50;58.24;100513.69;5014636;28;20030;-61
2021/06/14 03:57:14;;;;;;;9.73;5.63;;;;;;;16.50;57.89;100513.69;5015801;28;20044;-61
2021/06/14 03:59:39;;;;;;;9.65;5.65;;;;;;;16.49;57.93;100511.06;5016232;28;20060;-61
2021/06/14 04:02:08;;;;;;;9.50;5.88;;;;;;;16.48;57.95;100518.06;4998222;28;20050;-61
2021/06/14 04:04:51;;;;;;;10.70;6.63;;;;;;;16.48;57.74;100520.69;5015769;28;20516;-60
2021/06/14 04:07:17;;;;;;;9.13;5.65;;;;;;;16.48;57.97;100517.16;5016102;28;20065;-61
2021/06/14 04:09:45;;;;;;;10.70;5.90;;;;;;;16.48;57.98;100511.94;5016370;28;20073;-61
2021/06/14 04:12:13;;;;;;;9.75;6.07;;;;;;;16.48;58.10;100514.56;5016174;28;20037;-61
2021/06/14 04:14:43;;;;;;;9.10;5.75;;;;;;;16.48;57.89;100510.22;5015357;28;20394;-61
2021/06/14 04:17:11;;;;;;;9.88;6.07;;;;;;;16.48;58.03;100504.97;5015579;28;20030;-61
2021/06/14 04:19:42;;;;;;;14.70;5.55;;;;;;;16.48;58.18;100507.59;5015428;28;20095;-61
2021/06/14 04:22:10;;;;;;;7.25;5.40;;;;;;;16.48;58.11;100501.47;5014681;28;20042;-61
2021/06/14 04:24:41;;;;;;;13.30;6.38;;;;;;;16.47;57.85;100502.34;5014656;28;20045;-61
2021/06/14 04:27:14;;;;;;;10.32;5.90;;;;;;;16.47;57.98;100503.22;5015353;28;20042;-61
2021/06/14 04:29:42;;;;;;;10.05;5.65;;;;;;;16.48;57.92;100498.84;5014946;28;20065;-61
2021/06/14 04:32:08;;;;;;;10.23;5.85;;;;;;;16.48;57.94;100498.84;5014956;28;20046;-61
2021/06/14 04:34:39;;;;;;;11.68;5.55;;;;;;;16.47;58.15;100500.63;5015121;28;20056;-60
2021/06/14 04:37:04;;;;;;;8.25;5.43;;;;;;;16.48;58.02;100504.97;5014175;28;20034;-61
2021/06/14 04:39:38;;;;;;;10.80;5.72;;;;;;;16.48;57.91;100498.84;5015783;28;20617;-60
2021/06/14 04:42:10;;;;;;;12.05;5.57;;;;;;;16.49;58.10;100492.75;5015677;28;20033;-61
2021/06/14 04:44:38;;;;;;;8.38;5.53;;;;;;;16.49;57.85;100498.00;5014003;28;20034;-61
2021/06/14 04:47:09;;;;;;;8.50;5.30;;;;;;;16.48;57.93;100499.75;5013638;28;20516;-61
2021/06/14 04:49:34;;;;;;;13.55;5.65;;;;;;;16.50;57.95;100491.88;5014363;28;20473;-61
2021/06/14 04:52:00;;;;;;;14.38;5.07;;;;;;;16.51;57.88;100504.09;5014979;28;20034;-61
2021/06/14 04:54:31;;;;;;;11.07;5.32;;;;;;;16.51;57.89;100499.72;5014888;28;20040;-61
2021/06/14 04:56:59;;;;;;;8.48;4.57;;;;;;;16.53;57.96;100497.13;5014644;28;20045;-60
2021/06/14 04:59:30;;;;;;;8.85;4.90;;;;;;;16.53;57.60;100497.13;5013532;28;20044;-61
2021/06/14 05:01:56;;;;;;;11.15;5.63;;;;;;;16.54;57.92;100498.88;5015154;28;20068;-60
2021/06/14 05:04:24;;;;;;;6.88;4.47;;;;;;;16.55;57.85;100496.22;5013676;28;20038;-61
2021/06/14 05:06:52;;;;;;;12.38;5.40;;;;;;;16.55;57.72;100503.22;5013354;28;20030;-61
2021/06/14 05:09:21;;;;;;;9.60;5.15;;;;;;;16.56;57.85;100503.22;4997213;28;20061;-61
2021/06/14 05:11:49;;;;;;;8.80;5.20;;;;;;;16.58;57.67;100505.84;5014623;28;20048;-60
2021/06/14 05:14:15;;;;;;;9.38;4.90;;;;;;;16.58;57.90;100504.09;5014566;28;20435;-63
2021/06/14 05:16:42;;;;;;;8.55;5.20;;;;;;;16.60;57.81;100504.06;5014027;28;20069;-60
2021/06/14 05:19:08;;;;;;;10.13;5.95;;;;;;;16.63;57.96;100513.69;5014377;28;20129;-60
2021/06/14 05:21:33;;;;;;;16.77;5.57;;;;;;;16.64;57.88;100507.56;5014594;28;20131;-62
2021/06/14 05:23:59;;;;;;;11.73;5.00;;;;;;;16.66;57.94;100513.69;5014583;28;20488;-60
2021/06/14 05:26:24;;;;;;;8.93;5.25;;;;;;;16.67;57.88;100507.53;5014170;28;20068;-61
2021/06/14 05:28:55;;;;;;;12.63;5.85;;;;;;;16.67;58.03;100511.06;5014394;28;20048;-61
2021/06/14 05:31:20;;;;;;;8.35;4.15;;;;;;;16.69;57.92;100513.66;5014195;28;20034;-62
2021/06/14 05:33:46;;;;;;;11.57;5.88;;;;;;;16.70;58.01;100504.94;5014519;28;20096;-62
2021/06/14 05:36:12;;;;;;;12.18;5.47;;;;;;;16.71;58.19;100507.56;5014568;28;20034;-62
2021/06/14 05:38:42;;;;;;;11.80;6.05;;;;;;;16.72;58.15;100505.81;5013881;28;20515;-62
2021/06/14 05:41:08;;;;;;;14.85;5.45;;;;;;;16.73;58.01;100513.66;5012578;28;20051;-62
2021/06/14 05:43:39;;;;;;;15.65;5.82;;;;;;;16.75;57.96;100511.03;5013823;28;20041;-62
2021/06/14 05:46:04;;;;;;;10.63;4.97;;;;;;;16.77;58.20;100518.88;5013038;28;20038;-61
2021/06/14 05:48:32;;;;;;;14.20;6.43;;;;;;;16.78;57.98;100520.63;5014219;28;20030;-62
2021/06/14 05:51:00;;;;;;;10.60;5.13;;;;;;;16.79;57.84;100519.75;5013636;28;20067;-62
2021/06/14 05:53:33;;;;;;;10.68;4.65;;;;;;;16.80;57.94;100519.75;5012381;28;20062;-62
2021/06/14 05:56:02;;;;;;;9.95;5.38;;;;;;;16.82;58.15;100511.88;5013542;28;20149;-62
2021/06/14 05:58:29;;;;;;;7.97;4.40;;;;;;;16.84;58.07;100518.00;5012615;28;20486;-62
2021/06/14 06:01:00;;;;;;;10.57;4.65;;;;;;;16.84;58.03;100521.47;5013561;28;20129;-62
2021/06/14 06:03:28;;;;;;;13.85;5.63;;;;;;;16.86;58.00;100517.09;5014337;28;20141;-62
2021/06/14 06:05:59;;;;;;;11.98;4.82;;;;;;;16.87;57.93;100518.84;5013892;28;20104;-62
2021/06/14 06:08:25;;;;;;;11.93;5.05;;;;;;;16.89;57.58;100514.50;5013918;28;20103;-62
2021/06/14 06:10:51;;;;;;;9.75;4.55;;;;;;;16.91;58.05;100519.72;5012595;28;20042;-62
2021/06/14 06:13:17;;;;;;;9.77;4.95;;;;;;;16.93;57.85;100522.34;5012334;28;20045;-63
2021/06/14 06:15:45;;;;;;;8.77;4.60;;;;;;;16.94;58.00;100521.47;5012666;28;20034;-62
2021/06/14 06:18:14;;;;;;;10.35;4.78;;;;;;;16.95;57.92;100518.88;5013878;28;20048;-62
2021/06/14 06:20:41;;;;;;;11.93;4.80;;;;;;;16.97;57.96;100524.13;5013717;28;20156;-62
2021/06/14 06:23:10;;;;;;;7.53;4.35;;;;;;;16.97;57.74;100524.97;5013683;28;20048;-62
2021/06/14 06:25:36;;;;;;;6.97;3.97;;;;;;;16.99;57.91;100528.47;5013245;28;20386;-62
2021/06/14 06:28:02;;;;;;;10.30;4.22;;;;;;;17.00;57.77;100530.22;5013454;28;20045;-62
2021/06/14 06:30:29;;;;;;;7.85;4.68;;;;;;;17.01;57.89;100526.72;5013397;28;20037;-62
2021/06/14 06:33:01;;;;;;;11.38;5.18;;;;;;;17.02;57.92;100527.56;5013438;28;20033;-62
2021/06/14 06:35:26;;;;;;;10.43;4.55;;;;;;;17.05;57.70;100538.03;5013195;28;20053;-62
2021/06/14 06:37:54;;;;;;;10.85;4.57;;;;;;;17.07;57.96;100532.78;5011859;28;20489;-62
2021/06/14 06:40:20;;;;;;;12.73;3.90;;;;;;;17.08;57.90;100532.81;5013226;28;20038;-62
2021/06/14 06:42:45;;;;;;;6.60;3.70;;;;;;;17.09;57.62;100533.66;4996041;28;20567;-62
2021/06/14 06:45:15;;;;;;;7.22;4.03;;;;;;;17.10;57.58;100541.53;5012470;28;20117;-62
2021/06/14 06:47:41;;;;;;;10.90;5.15;;;;;;;17.12;57.68;100531.03;5012488;28;20034;-62
2021/06/14 06:50:07;;;;;;;6.25;3.83;;;;;;;17.12;57.58;100531.94;5013330;28;20052;-62
2021/06/14 06:52:35;;;;;;;11.55;4.72;;;;;;;17.16;57.67;100530.16;5012158;28;20400;-62
2021/06/14 06:55:13;;;;;;;8.73;4.78;;;;;;;17.16;57.63;100517.91;5015764;28;20412;-62
2021/06/14 06:57:39;;;;;;;5.07;3.75;;;;;;;17.18;57.66;100520.56;5016742;28;20041;-62
2021/06/14 07:00:08;;;;;;;10.43;4.40;;;;;;;17.20;57.65;100526.66;5015872;28;20497;-62
2021/06/14 07:02:33;;;;;;;7.45;3.55;;;;;;;17.20;57.72;100521.41;5015651;28;20069;-62
2021/06/14 07:04:59;;;;;;;6.13;3.20;;;;;;;17.22;57.51;100514.41;5015781;28;20426;-62
2021/06/14 07:07:24;;;;;;;10.80;4.32;;;;;;;17.24;57.67;100511.78;4999011;28;20087;-62
2021/06/14 07:09:50;;;;;;;6.00;3.38;;;;;;;17.24;57.48;100504.78;5016979;28;20121;-62
2021/06/14 07:12:21;;;;;;;8.07;4.00;;;;;;;17.26;57.45;100502.19;5016719;28;20052;-62
2021/06/14 07:14:54;;;;;;;6.32;3.70;;;;;;;17.28;57.68;100503.06;5016885;28;20038;-62
2021/06/14 07:17:25;;;;;;;7.97;4.40;;;;;;;17.29;57.56;100507.38;5016999;28;20037;-62
2021/06/14 07:19:54;;;;;;;11.73;4.20;;;;;;;17.31;57.65;100503.03;5017288;28;20120;-62
2021/06/14 07:22:19;;;;;;;5.95;3.75;;;;;;;17.32;57.81;100499.53;5016739;28;20040;-62
2021/06/14 07:24:48;;;;;;;7.25;3.75;;;;;;;17.34;57.63;100514.38;4999473;28;20065;-62
2021/06/14 07:27:16;;;;;;;7.47;4.07;;;;;;;17.37;57.57;100510.84;5016431;28;20037;-62
2021/06/14 07:29:46;;;;;;;14.73;4.28;;;;;;;17.39;57.37;100508.22;5016913;28;20144;-62
2021/06/14 07:32:19;;;;;;;12.55;4.88;;;;;;;17.40;57.46;100509.97;5016325;28;20038;-62
2021/06/14 07:34:45;;;;;;;10.63;4.35;;;;;;;17.41;57.40;100514.31;5015132;28;20041;-62
2021/06/14 07:37:10;;;;;;;7.05;3.83;;;;;;;17.42;57.44;100505.59;5016295;28;20042;-62
2021/06/14 07:39:36;;;;;;;12.55;4.15;;;;;;;17.44;57.51;100514.31;5013900;28;20092;-62
2021/06/14 07:42:05;;;;;;;13.15;4.45;;;;;;;17.45;57.37;100514.31;5016219;28;20038;-62
2021/06/14 07:44:34;;;;;;;11.50;3.78;;;;;;;17.47;57.41;100514.31;5016117;28;20123;-62
2021/06/14 07:46:59;;;;;;;8.70;3.88;;;;;;;17.48;57.42;100509.06;5016148;28;20030;-61
2021/06/14 07:49:25;;;;;;;8.18;4.25;;;;;;;17.49;57.35;100508.19;5015250;28;20038;-62
2021/06/14 07:51:56;;;;;;;9.48;4.47;;;;;;;17.52;57.24;100514.28;5016037;28;20071;-62
2021/06/14 07:54:24;;;;;;;7.50;3.95;;;;;;;17.52;57.21;100515.13;5015068;28;20121;-62
2021/06/14 07:56:55;;;;;;;9.68;4.57;;;;;;;17.53;57.24;100511.66;5016123;28;20057;-62
2021/06/14 07:59:20;;;;;;;6.50;4.13;;;;;;;17.55;57.23;100512.50;5016056;28;20116;-62
2021/06/14 08:01:46;;;;;;;8.40;4.03;;;;;;;17.55;57.26;100512.50;5015754;28;20137;-62
2021/06/14 08:04:14;;;;;;;9.45;5.05;;;;;;;17.57;57.15;100510.75;5013907;28;20038;-62
2021/06/14 08:06:45;;;;;;;13.00;5.60;;;;;;;17.58;57.31;100504.63;4998462;28;20133;-62
2021/06/14 08:09:14;;;;;;;7.85;4.75;;;;;;;17.61;57.26;100506.34;5014378;28;20095;-62
2021/06/14 08:11:44;;;;;;;12.45;4.60;;;;;;;17.61;57.23;100502.00;5014388;28;20073;-62
2021/06/14 08:14:10;;;;;;;7.65;3.80;;;;;;;17.63;57.15;100499.38;5015677;28;20037;-62
2021/06/14 08:16:43;;;;;;;13.10;4.75;;;;;;;17.63;57.14;100489.78;5014576;28;20054;-62
2021/06/14 08:27:17;;;;;;;7.97;4.03;;;;;;;17.71;57.16;100478.34;5015919;28;20080;-61
2021/06/14 08:29:45;;;;;;;5.97;3.50;;;;;;;17.73;57.29;100481.84;5014034;28;20125;-61
2021/06/14 08:32:14;;;;;;;8.48;4.18;;;;;;;17.74;57.06;100481.84;5013917;28;20504;-60
2021/06/14 08:34:48;;;;;;;8.82;4.70;;;;;;;17.76;57.22;100481.81;5014427;28;20034;-61
2021/06/14 08:37:19;;;;;;;8.02;3.80;;;;;;;17.77;57.03;100476.56;5015322;28;20458;-61
2021/06/14 08:39:53;;;;;;;8.63;3.78;;;;;;;17.79;57.10;100480.03;5015501;28;20041;-60
2021/06/14 08:42:26;;;;;;;7.45;3.72;;;;;;;17.80;57.07;100480.94;5015302;28;20046;-61
2021/06/14 08:44:59;;;;;;;9.40;3.90;;;;;;;17.82;57.10;100476.53;5013935;28;20092;-61
2021/06/14 08:47:29;;;;;;;10.20;3.75;;;;;;;17.84;57.07;100477.38;4997322;28;20030;-60
2021/06/14 08:49:57;;;;;;;6.85;3.80;;;;;;;17.86;57.04;100475.63;5014854;28;20038;-61
2021/06/14 08:52:29;;;;;;;7.35;4.07;;;;;;;17.87;57.02;100474.75;5014368;28;20588;-61
2021/06/14 08:54:57;;;;;;;5.57;3.47;;;;;;;17.91;57.10;100478.19;5015121;28;20038;-60
2021/06/14 08:57:25;;;;;;;8.50;3.70;;;;;;;17.93;57.16;100471.19;5014561;28;20065;-60
2021/06/14 08:59:53;;;;;;;9.48;4.40;;;;;;;17.95;57.05;100469.44;5014760;28;20072;-60
2021/06/14 09:02:26;;;;;;;8.55;4.20;;;;;;;17.96;57.17;100466.81;5015179;28;20050;-61
2021/06/14 09:04:54;;;;;;;8.80;4.05;;;;;;;17.98;57.00;100464.22;5013565;28;20046;-61
2021/06/14 09:07:23;;;;;;;7.68;3.80;;;;;;;17.99;56.97;100468.56;5014797;28;20045;-61
2021/06/14 09:09:53;;;;;;;11.15;3.83;;;;;;;18.00;56.76;100462.44;5014642;28;20045;-60
2021/06/14 09:12:21;;;;;;;9.55;4.47;;;;;;;18.02;56.91;100460.69;5014711;28;20041;-61
2021/06/14 09:14:49;;;;;;;6.25;3.63;;;;;;;18.05;56.98;100454.53;5014047;28;20575;-61
2021/06/14 09:17:17;;;;;;;8.52;3.70;;;;;;;18.08;57.15;100454.53;5012785;28;20061;-60
2021/06/14 09:19:55;;;;;;;6.90;3.65;;;;;;;18.09;56.96;100451.88;5014456;28;20045;-61
2021/06/14 09:22:28;;;;;;;9.68;4.13;;;;;;;18.10;56.91;100456.22;5014636;28;20033;-61
2021/06/14 09:25:05;;;;;;;8.80;4.20;;;;;;;18.09;57.07;100441.38;5014686;28;20048;-61
2021/06/14 09:27:36;;;;;;;10.70;4.28;;;;;;;18.11;56.64;100444.88;5014699;28;20092;-61
2021/06/14 09:30:14;;;;;;;;;;;;;;;18.10;56.68;100443.13;5013485;28;20485;-60
2021/06/14 09:32:56;;;;;;;6.53;4.25;;;;;;;18.10;56.78;100443.13;5013177;28;20288;-60
2021/06/14 09:35:33;;;;;;;7.47;3.65;;;;;;;18.13;56.70;100447.50;5014438;28;20042;-60
2021/06/14 09:38:10;;;;;;;6.82;3.92;;;;;;;18.13;56.50;100442.25;5014825;28;20046;-60
2021/06/14 09:40:46;;;;;;;8.20;3.33;;;;;;;18.15;56.60;100443.06;5012892;28;20476;-60
2021/06/14 09:43:29;;;;;;;8.35;3.60;;;;;;;18.16;56.50;100442.19;5013942;28;20125;-61
2021/06/14 09:45:57;;;;;;;7.13;3.80;;;;;;;18.18;56.58;100443.06;5012566;28;20037;-61
2021/06/14 09:48:25;;;;;;;12.30;4.57;;;;;;;18.21;56.38;100436.94;5013117;28;20444;-60
2021/06/14 09:50:54;;;;;;;8.60;4.22;;;;;;;18.22;56.65;100430.78;5013745;28;20034;-61
2021/06/14 09:53:30;;;;;;;7.43;3.72;;;;;;;18.23;56.63;100424.63;5014062;28;20033;-60
2021/06/14 09:56:01;;;;;;;7.30;3.65;;;;;;;18.24;56.47;100427.28;5013058;28;20124;-62
2021/06/14 09:58:27;;;;;;;6.35;3.58;;;;;;;18.25;56.42;100423.75;5012578;28;20038;-61
2021/06/14 10:00:59;;;;;;;8.82;4.15;;;;;;;18.29;56.37;100427.22;5013977;28;20503;-62
2021/06/14 10:03:48;;;;;;;8.85;3.88;;;;;;;18.31;56.42;100424.56;4996624;28;20046;-63
2021/06/14 10:06:28;;;;;;;8.60;3.75;;;;;;;18.33;56.47;100428.94;5013124;28;20060;-62
2021/06/14 10:09:02;;;;;;;7.10;3.78;;;;;;;18.34;56.58;100427.16;5013958;28;20084;-62
2021/06/14 10:11:34;;;;;;;;;;;;;;;18.36;56.32;100425.41;5013360;28;20117;-61
2021/06/14 10:14:13;;;;;;;7.85;4.47;;;;;;;18.37;56.34;100432.38;5012667;28;19920;-62
2021/06/14 10:16:40;;;;;;;7.38;4.10;;;;;;;18.39;56.26;100422.75;4996529;28;20041;-61
2021/06/14 10:19:10;;;;;;;8.20;4.00;;;;;;;18.43;56.16;100427.09;5012576;28;20120;-62
2021/06/14 10:21:45;;;;;;;6.18;4.07;;;;;;;18.46;56.31;100423.56;5012448;28;20046;-62
2021/06/14 10:24:16;;;;;;;5.75;3.22;;;;;;;18.47;56.04;100426.16;5012755;28;20547;-62
2021/06/14 10:26:50;;;;;;;9.15;3.90;;;;;;;18.48;56.22;100417.41;5013688;28;20041;-62
2021/06/14 10:29:21;;;;;;;;;;;;;;;18.50;56.41;100420.03;5016030;28;20041;-62
2021/06/14 10:31:53;;;;;;;6.95;3.50;;;;;;;18.52;56.26;100419.09;5016413;28;19921;-62
2021/06/14 10:34:22;;;;;;;10.27;4.57;;;;;;;18.53;56.11;100420.84;5016544;28;20045;-62
2021/06/14 10:36:53;;;;;;;7.25;3.70;;;;;;;18.55;56.26;100423.44;5018017;28;20188;-62
2021/06/14 10:39:23;;;;;;;6.40;4.00;;;;;;;18.57;56.34;100416.44;5016643;28;20111;-61
2021/06/14 10:41:55;;;;;;;6.35;3.75;;;;;;;18.59;56.28;100419.91;5017594;28;20037;-60
2021/06/14 10:44:23;;;;;;;9.13;4.00;;;;;;;18.61;56.16;100415.50;5017328;28;20046;-61
2021/06/14 10:46:57;;;;;;;7.65;4.15;;;;;;;18.64;56.08;100412.88;5017792;28;20034;-60
2021/06/14 10:49:31;;;;;;;6.38;3.70;;;;;;;18.68;56.27;100401.44;5017775;28;20038;-60
2021/06/14 10:51:59;;;;;;;7.20;4.05;;;;;;;18.70;56.07;100396.16;5017515;28;20068;-60
2021/06/14 10:54:40;;;;;;;7.22;3.60;;;;;;;18.72;56.23;100397.03;5017114;28;20486;-60
2021/06/14 10:57:10;;;;;;;6.32;3.65;;;;;;;18.76;56.10;100403.97;5017205;28;20034;-60
2021/06/14 10:59:40;;;;;;;5.25;3.60;;;;;;;18.79;56.10;100406.53;5016007;28;20053;-62
2021/06/14 11:02:10;;;;;;;6.10;3.80;;;;;;;18.81;56.18;100407.41;5016900;28;20132;-61
2021/06/14 11:04:36;;;;;;;6.95;3.80;;;;;;;18.82;56.32;100401.25;5016931;28;20045;-62
2021/06/14 11:07:05;;;;;;;6.43;3.58;;;;;;;18.84;56.16;100407.38;5015667;28;20033;-62
2021/06/14 11:09:41;;;;;;;9.35;3.65;;;;;;;18.89;56.21;100401.19;5015824;28;20042;-61
2021/06/14 11:12:23;;;;;;;7.30;4.07;;;;;;;18.90;56.47;100410.81;5017223;28;20048;-62
2021/06/14 11:14:52;;;;;;;6.80;3.70;;;;;;;18.92;56.18;100402.00;5016865;28;20528;-61
2021/06/14 11:17:33;;;;;;;5.10;3.97;;;;;;;18.95;56.36;100394.13;5016429;28;20064;-62
2021/06/14 11:19:59;;;;;;;6.50;3.60;;;;;;;18.97;56.18;100391.47;5015198;28;20034;-62
2021/06/14 11:22:44;;;;;;;6.63;3.60;;;;;;;18.99;56.04;100394.97;5016789;28;20074;-62
2021/06/14 11:25:27;;;;;;;6.22;3.90;;;;;;;19.00;56.19;100391.44;5015625;28;20029;-61
2021/06/14 11:27:56;;;;;;;6.43;4.13;;;;;;;19.00;55.99;100396.69;5016913;28;20126;-62
2021/06/14 11:30:34;;;;;;;6.88;4.00;;;;;;;19.02;56.21;100394.91;5016098;28;20568;-62
2021/06/14 11:33:01;;;;;;;5.32;3.53;;;;;;;19.02;56.14;100389.66;5015351;28;20417;-62
2021/06/14 11:35:35;;;;;;;6.30;3.70;;;;;;;19.06;56.01;100399.25;5016337;28;20103;-62
2021/06/14 11:38:16;;;;;;;6.38;3.90;;;;;;;19.08;55.92;100391.34;5015660;28;20496;-62
2021/06/14 11:40:52;;;;;;;6.43;3.58;;;;;;;19.10;55.85;100400.06;5016476;28;20045;-62
2021/06/14 11:43:21;;;;;;;5.45;3.55;;;;;;;19.11;55.97;100389.53;5016190;28;20057;-62